createdAt,value
2023-09-30T00:00:46.225Z,15.65
2023-09-30T00:01:49.225Z,12.27
2023-09-30T00:02:51.951Z,10.70
2023-09-30T00:03:55.035Z,17.55
2023-09-30T00:04:57.550Z,13.95
2023-09-30T00:06:00.574Z,15.18
2023-09-30T00:07:02.837Z,14.45
2023-09-30T00:08:05.911Z,13.13
2023-09-30T00:09:08.706Z,19.50
2023-09-30T00:10:11.739Z,11.32
2023-09-30T00:11:18.158Z,17.08
2023-09-30T00:12:20.631Z,8.60
2023-09-30T00:13:22.996Z,12.15
2023-09-30T00:14:25.477Z,15.13
2023-09-30T00:15:27.891Z,10.43
2023-09-30T00:16:30.408Z,11.73
2023-09-30T00:17:32.939Z,13.30
2023-09-30T00:18:35.450Z,13.57
2023-09-30T00:19:38.367Z,17.73
2023-09-30T00:20:41.390Z,12.50
2023-09-30T00:21:43.865Z,13.52
2023-09-30T00:22:46.289Z,13.02
2023-09-30T00:23:48.657Z,11.38
2023-09-30T00:24:51.009Z,16.77
2023-09-30T00:25:53.450Z,14.60
2023-09-30T00:26:55.983Z,16.92
2023-09-30T00:27:58.722Z,13.13
2023-09-30T00:29:01.094Z,9.90
2023-09-30T00:30:04.422Z,11.23
2023-09-30T00:31:12.793Z,15.30
2023-09-30T00:32:15.399Z,13.18
2023-09-30T00:33:17.851Z,10.20
2023-09-30T00:34:20.247Z,14.65
2023-09-30T00:35:22.628Z,14.15
2023-09-30T00:36:25.471Z,10.18
2023-09-30T00:37:28.374Z,14.10
2023-09-30T00:38:30.651Z,13.80
2023-09-30T00:39:34.419Z,16.05
2023-09-30T00:40:37.059Z,8.77
2023-09-30T00:41:42.327Z,9.75
2023-09-30T00:42:44.739Z,10.68
2023-09-30T00:43:50.156Z,14.10
2023-09-30T00:44:52.516Z,18.20
2023-09-30T00:46:06.605Z,17.60
2023-09-30T00:47:10.486Z,21.90
2023-09-30T00:48:13.106Z,15.02
2023-09-30T00:49:15.797Z,12.57
2023-09-30T00:50:18.240Z,12.38
2023-09-30T00:51:20.973Z,13.25
2023-09-30T00:52:23.847Z,13.02
2023-09-30T00:53:26.705Z,12.80
2023-09-30T00:54:30.303Z,9.07
2023-09-30T00:55:32.808Z,10.82
2023-09-30T00:56:35.537Z,12.50
2023-09-30T00:57:39.522Z,20.15
2023-09-30T00:58:41.887Z,9.73
2023-09-30T00:59:44.415Z,15.40
2023-09-30T01:00:47.400Z,9.23
2023-09-30T01:01:50.140Z,11.07
2023-09-30T01:02:54.368Z,12.52
2023-09-30T01:03:57.355Z,8.98
2023-09-30T01:05:00.153Z,11.90
2023-09-30T01:06:02.729Z,10.43
2023-09-30T01:07:06.279Z,13.07
2023-09-30T01:08:08.855Z,9.43
2023-09-30T01:09:11.439Z,13.23
2023-09-30T01:10:13.934Z,19.63
2023-09-30T01:11:16.724Z,13.63
2023-09-30T01:12:19.566Z,15.10
2023-09-30T01:13:21.943Z,14.70
2023-09-30T01:14:32.682Z,14.60
2023-09-30T01:15:35.815Z,15.55
2023-09-30T01:16:38.273Z,12.95
2023-09-30T01:17:40.872Z,8.90
2023-09-30T01:18:44.612Z,13.27
2023-09-30T01:19:48.092Z,9.25
2023-09-30T01:20:52.552Z,10.73
2023-09-30T01:22:01.586Z,14.73
2023-09-30T01:23:05.203Z,9.00
2023-09-30T01:24:07.987Z,17.70
2023-09-30T01:25:11.197Z,13.63
2023-09-30T01:26:14.738Z,10.77
2023-09-30T01:27:19.706Z,16.33
2023-09-30T01:28:22.350Z,18.27
2023-09-30T01:29:26.997Z,13.07
2023-09-30T01:30:29.557Z,11.63
2023-09-30T01:31:31.918Z,13.20
2023-09-30T01:32:34.504Z,16.30
2023-09-30T01:33:36.992Z,15.65
2023-09-30T01:34:39.315Z,12.77
2023-09-30T01:35:41.696Z,12.02
2023-09-30T01:36:45.107Z,13.63
2023-09-30T01:37:47.656Z,18.48
2023-09-30T01:38:50.187Z,14.00
2023-09-30T01:39:56.244Z,17.30
2023-09-30T01:41:01.130Z,12.50
2023-09-30T01:42:04.040Z,11.93
2023-09-30T01:43:09.449Z,10.52
2023-09-30T01:44:11.713Z,15.05
2023-09-30T01:45:14.497Z,11.73
2023-09-30T01:46:17.009Z,9.98
2023-09-30T01:47:19.369Z,12.15
2023-09-30T01:48:21.940Z,12.57
2023-09-30T01:49:25.548Z,10.30
2023-09-30T01:50:28.117Z,18.13
2023-09-30T01:51:31.151Z,14.05
2023-09-30T01:52:34.494Z,9.70
2023-09-30T01:53:37.490Z,15.40
2023-09-30T01:54:39.939Z,12.82
2023-09-30T01:55:42.341Z,17.40
2023-09-30T01:56:44.792Z,17.55
2023-09-30T01:57:47.640Z,12.13
2023-09-30T01:58:50.049Z,13.10
2023-09-30T01:59:53.049Z,18.08
2023-09-30T02:00:55.483Z,11.80
2023-09-30T02:01:59.266Z,13.25
2023-09-30T02:03:02.071Z,11.93
2023-09-30T02:04:08.117Z,12.98
2023-09-30T02:05:10.866Z,17.83
2023-09-30T02:06:13.397Z,10.90
2023-09-30T02:07:15.760Z,12.10
2023-09-30T02:08:19.582Z,12.38
2023-09-30T02:09:22.233Z,11.90
2023-09-30T02:10:24.594Z,13.98
2023-09-30T02:11:27.395Z,19.23
2023-09-30T02:12:30.288Z,11.93
2023-09-30T02:13:38.566Z,13.05
2023-09-30T02:14:41.156Z,17.98
2023-09-30T02:15:43.875Z,11.77
2023-09-30T02:16:46.226Z,11.23
2023-09-30T02:17:50.532Z,17.77
2023-09-30T02:18:53.177Z,13.50
2023-09-30T02:19:56.184Z,12.85
2023-09-30T02:21:00.842Z,13.20
2023-09-30T02:22:03.377Z,11.15
2023-09-30T02:23:07.247Z,12.85
2023-09-30T02:24:09.825Z,13.85
2023-09-30T02:25:13.899Z,11.55
2023-09-30T02:26:17.084Z,12.57
2023-09-30T02:27:19.467Z,10.65
2023-09-30T02:28:21.884Z,15.10
2023-09-30T02:29:24.168Z,15.40
2023-09-30T02:30:26.826Z,11.65
2023-09-30T02:31:29.197Z,14.07
2023-09-30T02:32:31.710Z,13.65
2023-09-30T02:33:40.327Z,15.07
2023-09-30T02:34:45.645Z,13.40
2023-09-30T02:35:48.134Z,14.80
2023-09-30T02:36:50.766Z,10.18
2023-09-30T02:37:53.652Z,14.52
2023-09-30T02:38:55.991Z,19.95
2023-09-30T02:39:58.822Z,16.55
2023-09-30T02:41:01.128Z,17.25
2023-09-30T02:42:03.587Z,13.32
2023-09-30T02:43:05.903Z,10.38
2023-09-30T02:44:08.125Z,16.33
2023-09-30T02:45:11.906Z,17.25
2023-09-30T02:46:14.635Z,16.90
2023-09-30T02:47:17.302Z,10.55
2023-09-30T02:48:19.754Z,20.50
2023-09-30T02:49:23.011Z,14.77
2023-09-30T02:50:25.327Z,12.05
2023-09-30T02:51:28.057Z,13.80
2023-09-30T02:52:32.814Z,10.70
2023-09-30T02:53:35.322Z,9.77
2023-09-30T02:54:37.716Z,12.68
2023-09-30T02:55:40.849Z,12.52
2023-09-30T02:56:43.200Z,18.27
2023-09-30T02:57:48.062Z,16.50
2023-09-30T02:58:50.497Z,16.60
2023-09-30T02:59:55.691Z,12.15
2023-09-30T03:00:58.183Z,10.52
2023-09-30T03:02:00.632Z,15.77
2023-09-30T03:03:04.058Z,12.55
2023-09-30T03:04:08.192Z,18.63
2023-09-30T03:05:11.674Z,11.27
2023-09-30T03:06:14.213Z,12.43
2023-09-30T03:07:17.233Z,10.65
2023-09-30T03:08:19.607Z,11.63
2023-09-30T03:09:21.974Z,14.50
2023-09-30T03:10:28.103Z,12.18
2023-09-30T03:11:31.302Z,13.48
2023-09-30T03:12:33.726Z,13.65
2023-09-30T03:13:36.291Z,13.10
2023-09-30T03:14:38.602Z,16.13
2023-09-30T03:15:40.947Z,13.40
2023-09-30T03:16:44.552Z,15.63
2023-09-30T03:17:47.680Z,11.20
2023-09-30T03:18:52.024Z,13.45
2023-09-30T03:19:55.352Z,17.95
2023-09-30T03:21:09.956Z,17.65
2023-09-30T03:22:12.975Z,16.30
2023-09-30T03:23:15.503Z,12.07
2023-09-30T03:24:17.945Z,12.32
2023-09-30T03:25:22.160Z,20.70
2023-09-30T03:26:25.028Z,12.05
2023-09-30T03:27:27.807Z,18.65
2023-09-30T03:28:30.287Z,14.57
2023-09-30T03:29:32.640Z,14.40
2023-09-30T03:30:35.830Z,14.45
2023-09-30T03:31:38.307Z,14.43
2023-09-30T03:32:41.324Z,10.27
2023-09-30T03:33:43.694Z,20.00
2023-09-30T03:34:47.489Z,16.58
2023-09-30T03:35:50.339Z,15.30
2023-09-30T03:36:52.801Z,13.02
2023-09-30T03:37:55.110Z,25.38
2023-09-30T03:39:00.101Z,18.60
2023-09-30T03:40:12.930Z,12.63
2023-09-30T03:41:15.315Z,11.70
2023-09-30T03:42:17.687Z,12.38
2023-09-30T03:43:20.316Z,14.23
2023-09-30T03:44:24.214Z,10.48
2023-09-30T03:45:26.816Z,12.30
2023-09-30T03:46:29.340Z,20.52
2023-09-30T03:47:32.920Z,13.52
2023-09-30T03:48:40.604Z,12.00
2023-09-30T03:49:46.386Z,15.20
2023-09-30T03:50:49.866Z,16.20
2023-09-30T03:51:55.015Z,16.15
2023-09-30T03:53:06.137Z,8.02
2023-09-30T03:54:09.907Z,15.93
2023-09-30T03:55:13.361Z,15.52
2023-09-30T03:56:15.619Z,11.18
2023-09-30T03:57:18.900Z,14.05
2023-09-30T03:58:21.254Z,16.58
2023-09-30T03:59:23.452Z,12.07
2023-09-30T04:00:25.964Z,15.90
2023-09-30T04:01:28.411Z,11.70
2023-09-30T04:02:30.968Z,16.88
2023-09-30T04:03:36.263Z,10.60
2023-09-30T04:04:38.750Z,19.80
2023-09-30T04:05:41.646Z,11.23
2023-09-30T04:06:44.138Z,11.82
2023-09-30T04:07:46.682Z,19.92
2023-09-30T04:08:48.983Z,23.52
2023-09-30T04:09:51.322Z,19.70
2023-09-30T04:10:53.764Z,12.77
2023-09-30T04:11:56.084Z,18.23
2023-09-30T04:12:58.542Z,9.27
2023-09-30T04:14:00.769Z,21.80
2023-09-30T04:15:05.090Z,12.40
2023-09-30T04:16:07.426Z,18.48
2023-09-30T04:17:10.644Z,11.35
2023-09-30T04:18:13.875Z,12.82
2023-09-30T04:19:16.684Z,14.63
2023-09-30T04:20:22.833Z,14.38
2023-09-30T04:21:25.314Z,9.38
2023-09-30T04:22:29.646Z,17.42
2023-09-30T04:23:31.880Z,13.65
2023-09-30T04:24:34.193Z,10.88
2023-09-30T04:25:36.667Z,11.68
2023-09-30T04:26:39.653Z,11.55
2023-09-30T04:27:43.872Z,13.23
2023-09-30T04:28:46.312Z,12.65
2023-09-30T04:29:50.766Z,18.10
2023-09-30T04:30:54.761Z,15.00
2023-09-30T04:31:58.199Z,10.82
2023-09-30T04:33:02.044Z,10.32
2023-09-30T04:34:05.912Z,10.13
2023-09-30T04:35:09.433Z,10.43
2023-09-30T04:36:12.577Z,19.05
2023-09-30T04:37:15.416Z,12.82
2023-09-30T04:38:17.869Z,13.27
2023-09-30T04:39:20.327Z,17.17
2023-09-30T04:40:23.153Z,12.75
2023-09-30T04:41:26.894Z,11.98
2023-09-30T04:42:29.531Z,13.30
2023-09-30T04:43:33.896Z,16.35
2023-09-30T04:44:38.356Z,14.18
2023-09-30T04:45:41.317Z,11.75
2023-09-30T04:46:47.368Z,11.45
2023-09-30T04:47:52.734Z,12.82
2023-09-30T04:48:55.118Z,10.13
2023-09-30T04:49:59.431Z,17.73
2023-09-30T04:51:05.888Z,16.55
2023-09-30T04:52:09.242Z,14.32
2023-09-30T04:53:11.632Z,11.63
2023-09-30T04:54:13.929Z,10.43
2023-09-30T04:55:17.786Z,15.43
2023-09-30T04:56:20.557Z,13.85
2023-09-30T04:57:23.093Z,12.52
2023-09-30T04:58:26.433Z,12.05
2023-09-30T04:59:29.678Z,11.27
2023-09-30T05:00:32.042Z,12.20
2023-09-30T05:01:34.603Z,10.32
2023-09-30T05:02:37.489Z,11.10
2023-09-30T05:03:40.222Z,16.83
2023-09-30T05:04:43.849Z,14.20
2023-09-30T05:05:46.196Z,15.52
2023-09-30T05:06:48.798Z,12.65
2023-09-30T05:07:51.381Z,18.65
2023-09-30T05:08:53.818Z,15.15
2023-09-30T05:09:56.275Z,10.20
2023-09-30T05:10:58.669Z,10.68
2023-09-30T05:12:01.003Z,17.13
2023-09-30T05:13:04.217Z,10.70
2023-09-30T05:14:06.642Z,13.38
2023-09-30T05:15:09.774Z,14.32
2023-09-30T05:16:14.721Z,13.77
2023-09-30T05:17:17.359Z,11.63
2023-09-30T05:18:19.946Z,9.23
2023-09-30T05:19:22.552Z,12.05
2023-09-30T05:20:25.601Z,9.90
2023-09-30T05:21:28.351Z,9.13
2023-09-30T05:22:31.217Z,12.13
2023-09-30T05:23:33.749Z,9.68
2023-09-30T05:24:36.588Z,8.95
2023-09-30T05:25:39.007Z,13.07
2023-09-30T05:26:41.356Z,13.85
2023-09-30T05:27:44.652Z,11.35
2023-09-30T05:28:47.553Z,10.95
2023-09-30T05:29:50.067Z,11.23
2023-09-30T05:30:52.604Z,13.68
2023-09-30T05:31:55.350Z,13.40
2023-09-30T05:32:57.825Z,9.23
2023-09-30T05:34:00.927Z,13.02
2023-09-30T05:35:06.587Z,9.95
2023-09-30T05:36:09.988Z,11.90
2023-09-30T05:37:13.696Z,13.75
2023-09-30T05:38:15.987Z,8.98
2023-09-30T05:39:21.194Z,11.00
2023-09-30T05:40:25.197Z,14.93
2023-09-30T05:41:27.750Z,14.80
2023-09-30T05:42:31.581Z,14.68
2023-09-30T05:43:33.848Z,9.90
2023-09-30T05:44:36.246Z,8.88
2023-09-30T05:45:38.565Z,12.10
2023-09-30T05:46:41.144Z,11.27
2023-09-30T05:47:43.634Z,11.50
2023-09-30T05:48:46.170Z,17.27
2023-09-30T05:49:48.478Z,15.00
2023-09-30T05:50:51.004Z,13.25
2023-09-30T05:51:53.502Z,10.52
2023-09-30T05:52:56.717Z,12.32
2023-09-30T05:53:59.544Z,11.10
2023-09-30T05:55:03.452Z,15.88
2023-09-30T05:56:05.760Z,10.95
2023-09-30T05:57:09.172Z,13.40
2023-09-30T05:58:14.328Z,16.30
2023-09-30T05:59:16.613Z,9.88
2023-09-30T06:00:30.417Z,9.40
2023-09-30T06:01:33.831Z,15.23
2023-09-30T06:02:38.246Z,10.77
2023-09-30T06:03:41.956Z,17.08
2023-09-30T06:04:44.640Z,8.82
2023-09-30T06:05:47.513Z,10.60
2023-09-30T06:06:50.032Z,12.70
2023-09-30T06:07:52.951Z,11.20
2023-09-30T06:08:55.432Z,12.13
2023-09-30T06:09:57.958Z,11.68
2023-09-30T06:11:00.398Z,12.25
2023-09-30T06:12:04.736Z,8.40
2023-09-30T06:13:07.025Z,9.63
2023-09-30T06:14:09.237Z,14.18
2023-09-30T06:15:11.802Z,11.98
2023-09-30T06:16:14.739Z,11.43
2023-09-30T06:17:17.067Z,11.02
2023-09-30T06:18:20.195Z,13.65
2023-09-30T06:19:22.616Z,12.27
2023-09-30T06:20:28.248Z,12.20
2023-09-30T06:21:31.487Z,8.60
2023-09-30T06:22:34.028Z,12.10
2023-09-30T06:23:36.885Z,11.32
2023-09-30T06:24:40.081Z,10.75
2023-09-30T06:25:43.564Z,13.93
2023-09-30T06:26:45.970Z,12.55
2023-09-30T06:27:49.374Z,9.02
2023-09-30T06:28:54.908Z,12.75
2023-09-30T06:29:57.231Z,11.85
2023-09-30T06:30:59.726Z,12.13
2023-09-30T06:32:02.246Z,10.80
2023-09-30T06:33:06.671Z,10.20
2023-09-30T06:34:12.454Z,12.77
2023-09-30T06:35:14.890Z,10.20
2023-09-30T06:36:17.797Z,15.98
2023-09-30T06:37:21.047Z,13.05
2023-09-30T06:38:23.616Z,13.15
2023-09-30T06:39:25.894Z,11.52
2023-09-30T06:40:28.669Z,13.50
2023-09-30T06:41:31.826Z,11.27
2023-09-30T06:42:34.236Z,10.75
2023-09-30T06:43:37.097Z,8.80
2023-09-30T06:44:39.487Z,10.55
2023-09-30T06:45:43.739Z,10.38
2023-09-30T06:46:46.327Z,10.20
2023-09-30T06:47:49.358Z,11.05
2023-09-30T06:48:53.447Z,11.40
2023-09-30T06:49:55.845Z,9.77
2023-09-30T06:51:00.199Z,9.60
2023-09-30T06:52:04.276Z,9.90
2023-09-30T06:53:07.604Z,11.27
2023-09-30T06:54:10.052Z,10.63
2023-09-30T06:55:15.813Z,8.82
2023-09-30T06:56:18.284Z,13.48
2023-09-30T06:57:20.921Z,9.05
2023-09-30T06:58:23.397Z,8.10
2023-09-30T06:59:26.386Z,13.90
2023-09-30T07:00:28.727Z,8.93
2023-09-30T07:01:31.118Z,12.50
2023-09-30T07:02:33.580Z,10.73
2023-09-30T07:03:35.998Z,14.88
2023-09-30T07:04:38.431Z,11.27
2023-09-30T07:05:41.498Z,13.88
2023-09-30T07:06:43.861Z,10.63
2023-09-30T07:07:46.922Z,11.35
2023-09-30T07:08:49.318Z,12.68
2023-09-30T07:09:54.570Z,16.90
2023-09-30T07:10:57.719Z,10.43
2023-09-30T07:12:00.069Z,12.68
2023-09-30T07:13:05.619Z,11.00
2023-09-30T07:14:07.919Z,9.50
2023-09-30T07:15:10.734Z,13.02
2023-09-30T07:16:13.208Z,10.15
2023-09-30T07:17:17.615Z,10.05
2023-09-30T07:18:20.307Z,15.05
2023-09-30T07:19:22.956Z,12.95
2023-09-30T07:20:25.330Z,12.48
2023-09-30T07:21:27.750Z,10.18
2023-09-30T07:23:35.539Z,10.90
2023-09-30T07:24:37.987Z,8.10
2023-09-30T07:25:40.856Z,7.88
2023-09-30T07:26:43.282Z,9.80
2023-09-30T07:27:49.216Z,12.43
2023-09-30T07:28:51.523Z,14.35
2023-09-30T07:29:53.864Z,11.70
2023-09-30T07:30:56.914Z,11.02
2023-09-30T07:31:59.365Z,11.23
2023-09-30T07:33:02.029Z,11.13
2023-09-30T07:34:04.487Z,8.27
2023-09-30T07:35:07.575Z,11.52
2023-09-30T07:36:09.872Z,8.20
2023-09-30T07:37:12.377Z,14.98
2023-09-30T07:38:14.726Z,12.68
2023-09-30T07:39:18.599Z,12.43
2023-09-30T07:40:22.464Z,13.60
2023-09-30T07:41:24.901Z,9.10
2023-09-30T07:42:27.401Z,8.15
2023-09-30T07:43:30.084Z,11.23
2023-09-30T07:44:33.225Z,11.23
2023-09-30T07:45:35.834Z,18.10
2023-09-30T07:46:38.308Z,7.60
2023-09-30T07:47:40.724Z,10.85
2023-09-30T07:48:43.425Z,13.27
2023-09-30T07:49:46.073Z,9.00
2023-09-30T07:50:48.606Z,9.65
2023-09-30T07:51:51.201Z,12.48
2023-09-30T07:52:53.590Z,10.65
2023-09-30T07:53:55.944Z,14.25
2023-09-30T07:54:58.308Z,15.52
2023-09-30T07:56:00.630Z,9.68
2023-09-30T07:57:03.182Z,9.20
2023-09-30T07:58:05.685Z,10.65
2023-09-30T07:59:08.050Z,9.27
2023-09-30T08:00:16.409Z,12.00
2023-09-30T08:01:19.491Z,9.02
2023-09-30T08:02:23.849Z,8.85
2023-09-30T08:03:26.224Z,9.10
2023-09-30T08:04:28.645Z,13.45
2023-09-30T08:05:31.101Z,12.90
2023-09-30T08:06:33.603Z,14.00
2023-09-30T08:07:36.109Z,12.15
2023-09-30T08:08:38.568Z,11.80
2023-09-30T08:09:41.214Z,9.93
2023-09-30T08:10:44.316Z,11.65
2023-09-30T08:11:47.114Z,15.40
2023-09-30T08:12:51.253Z,12.65
2023-09-30T08:13:53.560Z,9.30
2023-09-30T08:14:56.236Z,11.18
2023-09-30T08:15:58.679Z,12.52
2023-09-30T08:17:01.080Z,11.32
2023-09-30T08:18:07.426Z,12.48
2023-09-30T08:19:10.318Z,10.77
2023-09-30T08:20:12.873Z,12.68
2023-09-30T08:21:15.252Z,13.05
2023-09-30T08:22:17.612Z,13.10
2023-09-30T08:23:20.007Z,15.25
2023-09-30T08:24:22.372Z,11.95
2023-09-30T08:25:25.045Z,10.80
2023-09-30T08:26:27.584Z,12.43
2023-09-30T08:27:30.297Z,12.77
2023-09-30T08:28:33.403Z,14.98
2023-09-30T08:29:39.405Z,11.50
2023-09-30T08:30:41.779Z,11.32
2023-09-30T08:31:44.058Z,9.45
2023-09-30T08:32:47.985Z,10.65
2023-09-30T08:33:50.593Z,15.85
2023-09-30T08:34:53.206Z,8.82
2023-09-30T08:35:55.514Z,13.73
2023-09-30T08:36:58.354Z,9.52
2023-09-30T08:38:00.940Z,13.98
2023-09-30T08:39:03.447Z,11.43
2023-09-30T08:40:06.827Z,12.02
2023-09-30T08:41:09.518Z,9.65
2023-09-30T08:42:12.758Z,11.00
2023-09-30T08:43:16.454Z,11.38
2023-09-30T08:44:19.138Z,12.57
2023-09-30T08:45:23.238Z,13.05
2023-09-30T08:46:26.150Z,14.80
2023-09-30T08:47:32.083Z,12.07
2023-09-30T08:48:35.432Z,15.10
2023-09-30T08:49:42.438Z,16.65
2023-09-30T08:50:45.485Z,12.38
2023-09-30T08:51:50.549Z,11.32
2023-09-30T08:52:53.978Z,11.63
2023-09-30T08:53:57.492Z,11.93
2023-09-30T08:54:59.798Z,11.80
2023-09-30T08:56:05.577Z,13.30
2023-09-30T08:57:10.987Z,11.55
2023-09-30T08:58:16.824Z,14.20
2023-09-30T08:59:19.147Z,12.07
2023-09-30T09:00:22.336Z,13.25
2023-09-30T09:01:28.463Z,14.00
2023-09-30T09:02:30.986Z,10.63
2023-09-30T09:03:33.606Z,14.13
2023-09-30T09:04:36.527Z,17.20
2023-09-30T09:05:39.008Z,14.90
2023-09-30T09:06:42.589Z,15.98
2023-09-30T09:07:45.122Z,13.25
2023-09-30T09:08:48.361Z,14.15
2023-09-30T09:10:15.147Z,11.23
2023-09-30T09:11:18.705Z,12.73
2023-09-30T09:12:21.574Z,13.68
2023-09-30T09:13:24.944Z,13.27
2023-09-30T09:14:40.955Z,10.82
2023-09-30T09:15:43.430Z,14.43
2023-09-30T09:16:58.411Z,15.38
2023-09-30T09:18:01.008Z,12.75
2023-09-30T09:19:18.874Z,12.52
2023-09-30T09:20:23.825Z,12.18
2023-09-30T09:21:28.689Z,14.15
2023-09-30T09:22:41.545Z,12.98
2023-09-30T09:23:48.088Z,12.98
2023-09-30T09:24:53.009Z,14.77
2023-09-30T09:25:56.848Z,13.18
2023-09-30T09:27:10.279Z,16.45
2023-09-30T09:28:12.707Z,14.55
2023-09-30T09:29:16.033Z,13.05
2023-09-30T09:30:40.143Z,11.35
2023-09-30T09:31:42.618Z,10.70
2023-09-30T09:33:00.471Z,19.23
2023-09-30T09:34:04.593Z,11.52
2023-09-30T09:35:08.845Z,7.72
2023-09-30T09:36:11.210Z,13.57
2023-09-30T09:37:21.581Z,8.85
2023-09-30T09:38:23.985Z,9.13
2023-09-30T09:39:32.381Z,8.88
2023-09-30T09:40:36.870Z,12.55
2023-09-30T09:41:52.976Z,9.07
2023-09-30T09:42:57.155Z,11.73
2023-09-30T09:44:00.647Z,7.25
2023-09-30T09:45:04.968Z,9.60
2023-09-30T09:46:09.388Z,7.47
2023-09-30T09:47:12.174Z,7.07
2023-09-30T09:48:15.065Z,6.22
2023-09-30T09:49:21.507Z,5.60
2023-09-30T09:50:24.351Z,9.65
2023-09-30T09:51:27.972Z,4.85
2023-09-30T09:52:30.595Z,7.13
2023-09-30T09:53:38.220Z,5.18
2023-09-30T09:54:44.054Z,6.90
2023-09-30T09:55:47.319Z,6.03
2023-09-30T09:56:50.374Z,9.10
2023-09-30T09:57:53.195Z,5.97
2023-09-30T09:58:55.889Z,6.28
2023-09-30T10:00:00.340Z,2.90
2023-09-30T10:01:03.836Z,4.75
2023-09-30T10:02:12.949Z,4.05
2023-09-30T10:03:15.587Z,8.10
2023-09-30T10:04:18.661Z,2.35
2023-09-30T10:05:22.094Z,2.60
2023-09-30T10:06:25.713Z,6.40
2023-09-30T10:07:32.412Z,3.90
2023-09-30T10:08:40.690Z,3.00
2023-09-30T10:09:53.194Z,2.58
2023-09-30T10:10:59.292Z,4.85
2023-09-30T10:12:02.463Z,2.75
2023-09-30T10:13:05.423Z,3.38
2023-09-30T10:14:13.438Z,3.65
2023-09-30T10:15:28.027Z,2.83
2023-09-30T10:16:36.771Z,5.00
2023-09-30T10:18:00.090Z,5.47
2023-09-30T10:19:30.776Z,2.45
2023-09-30T10:20:34.264Z,3.10
2023-09-30T10:21:36.917Z,4.90
2023-09-30T10:22:42.163Z,3.67
2023-09-30T10:23:44.457Z,4.30
2023-09-30T10:24:48.044Z,4.15
2023-09-30T10:25:52.585Z,5.53
2023-09-30T10:27:25.375Z,3.03
2023-09-30T10:28:34.878Z,6.43
2023-09-30T10:29:43.537Z,3.60
2023-09-30T10:31:14.162Z,4.90
2023-09-30T10:32:19.269Z,4.97
2023-09-30T10:33:21.817Z,4.20
2023-09-30T10:34:25.365Z,10.23
2023-09-30T10:35:33.663Z,4.75
2023-09-30T10:36:42.120Z,4.25
2023-09-30T10:37:48.258Z,3.40
2023-09-30T10:38:51.431Z,5.10
2023-09-30T10:39:58.680Z,5.60
2023-09-30T10:41:03.606Z,5.65
2023-09-30T10:42:06.259Z,3.85
2023-09-30T10:43:34.571Z,5.53
2023-09-30T10:44:38.688Z,5.00
2023-09-30T10:45:44.647Z,4.15
2023-09-30T10:46:47.010Z,6.72
2023-09-30T10:47:49.484Z,5.90
2023-09-30T10:48:52.669Z,4.82
2023-09-30T10:49:55.007Z,9.73
2023-09-30T10:51:02.091Z,5.10
2023-09-30T10:52:05.318Z,4.10
2023-09-30T10:53:08.688Z,3.30
2023-09-30T10:54:11.654Z,3.70
2023-09-30T10:55:20.272Z,6.88
2023-09-30T10:56:23.257Z,7.28
2023-09-30T10:57:31.465Z,4.75
2023-09-30T10:58:53.602Z,6.00
2023-09-30T11:00:25.411Z,7.20
2023-09-30T11:01:34.364Z,8.70
2023-09-30T11:02:37.454Z,6.53
2023-09-30T11:03:40.950Z,4.30
2023-09-30T11:04:49.407Z,8.05
2023-09-30T11:06:11.740Z,7.25
2023-09-30T11:07:20.601Z,3.70
2023-09-30T11:08:24.311Z,6.07
2023-09-30T11:09:27.687Z,8.70
2023-09-30T11:10:29.975Z,5.63
2023-09-30T11:11:39.221Z,7.68
2023-09-30T11:12:56.946Z,9.98
2023-09-30T11:13:59.795Z,6.20
2023-09-30T11:15:03.989Z,6.20
2023-09-30T11:16:06.773Z,7.25
2023-09-30T11:17:09.357Z,5.95
2023-09-30T11:18:19.264Z,6.97
2023-09-30T11:19:22.910Z,7.30
2023-09-30T11:20:25.470Z,6.80
2023-09-30T11:21:27.946Z,11.68
2023-09-30T11:22:30.256Z,6.60
2023-09-30T11:23:33.469Z,5.13
2023-09-30T11:24:38.678Z,4.32
2023-09-30T11:25:42.424Z,5.82
2023-09-30T11:26:46.210Z,6.70
2023-09-30T11:27:48.662Z,5.25
2023-09-30T11:28:51.123Z,8.43
2023-09-30T11:29:53.640Z,6.55
2023-09-30T11:30:57.404Z,6.70
2023-09-30T11:32:00.082Z,7.85
2023-09-30T11:33:02.746Z,6.13
2023-09-30T11:34:05.511Z,5.70
2023-09-30T11:35:12.649Z,8.98
2023-09-30T11:36:15.990Z,9.77
2023-09-30T11:37:18.859Z,7.03
2023-09-30T11:38:21.358Z,5.95
2023-09-30T11:39:28.544Z,5.68
2023-09-30T11:40:31.057Z,6.00
2023-09-30T11:41:39.404Z,6.18
2023-09-30T11:42:43.357Z,5.97
2023-09-30T11:44:03.130Z,4.28
2023-09-30T11:45:25.439Z,6.32
2023-09-30T11:46:29.095Z,5.90
2023-09-30T11:47:32.398Z,6.85
2023-09-30T11:48:34.767Z,6.47
2023-09-30T11:49:40.584Z,7.90
2023-09-30T11:50:47.588Z,11.85
2023-09-30T11:51:50.061Z,4.82
2023-09-30T11:52:52.486Z,9.65
2023-09-30T11:53:55.748Z,5.57
2023-09-30T11:54:58.845Z,7.68
2023-09-30T11:56:03.835Z,9.23
2023-09-30T11:57:06.179Z,5.30
2023-09-30T11:58:11.000Z,7.03
2023-09-30T11:59:13.199Z,5.97
2023-09-30T12:00:15.804Z,7.05
2023-09-30T12:01:18.212Z,4.97
2023-09-30T12:02:20.953Z,6.38
2023-09-30T12:03:23.481Z,5.63
2023-09-30T12:04:26.378Z,9.25
2023-09-30T12:05:30.250Z,4.82
2023-09-30T12:06:32.663Z,6.18
2023-09-30T12:07:34.980Z,9.27
2023-09-30T12:08:38.940Z,8.40
2023-09-30T12:09:41.945Z,10.07
2023-09-30T12:10:45.343Z,5.47
2023-09-30T12:11:48.056Z,4.15
2023-09-30T12:12:51.519Z,7.00
2023-09-30T12:13:54.304Z,7.80
2023-09-30T12:14:56.760Z,8.27
2023-09-30T12:15:59.169Z,5.00
2023-09-30T12:17:01.933Z,6.78
2023-09-30T12:18:06.644Z,7.22
2023-09-30T12:19:10.267Z,11.98
2023-09-30T12:20:16.346Z,5.03
2023-09-30T12:21:21.622Z,5.35
2023-09-30T12:22:24.048Z,5.65
2023-09-30T12:23:26.808Z,13.52
2023-09-30T12:24:29.049Z,9.23
2023-09-30T12:25:31.324Z,7.20
2023-09-30T12:26:33.778Z,9.55
2023-09-30T12:27:36.238Z,7.05
2023-09-30T12:28:38.878Z,4.43
2023-09-30T12:29:41.759Z,11.40
2023-09-30T12:30:44.682Z,6.63
2023-09-30T12:32:56.613Z,7.90
2023-09-30T12:33:58.993Z,9.80
2023-09-30T12:35:02.084Z,7.15
2023-09-30T12:36:04.734Z,4.53
2023-09-30T12:37:08.685Z,7.13
2023-09-30T12:38:12.101Z,6.90
2023-09-30T12:39:14.425Z,12.32
2023-09-30T12:40:18.131Z,6.20
2023-09-30T12:41:20.635Z,7.05
2023-09-30T12:42:23.058Z,9.60
2023-09-30T12:43:26.273Z,7.75
2023-09-30T12:44:28.628Z,6.18
2023-09-30T12:45:31.547Z,9.95
2023-09-30T12:46:36.136Z,5.72
2023-09-30T12:47:38.578Z,6.93
2023-09-30T12:48:43.437Z,7.97
2023-09-30T12:49:45.903Z,9.48
2023-09-30T12:50:48.826Z,12.07
2023-09-30T12:51:51.395Z,6.80
2023-09-30T12:52:53.688Z,7.15
2023-09-30T12:53:56.046Z,9.32
2023-09-30T12:54:58.476Z,6.13
2023-09-30T12:56:01.616Z,7.55
2023-09-30T12:57:04.057Z,7.03
2023-09-30T12:58:06.566Z,7.28
2023-09-30T12:59:09.138Z,7.85
2023-09-30T13:00:11.926Z,8.07
2023-09-30T13:01:22.487Z,4.78
2023-09-30T13:02:25.665Z,7.32
2023-09-30T13:03:28.140Z,7.85
2023-09-30T13:04:30.500Z,6.07
2023-09-30T13:05:32.853Z,6.13
2023-09-30T13:06:36.646Z,5.80
2023-09-30T13:07:39.154Z,7.22
2023-09-30T13:08:41.414Z,7.47
2023-09-30T13:09:43.995Z,8.00
2023-09-30T13:10:46.828Z,12.55
2023-09-30T13:11:49.300Z,6.30
2023-09-30T13:12:51.737Z,6.47
2023-09-30T13:13:54.314Z,7.38
2023-09-30T13:14:57.304Z,8.65
2023-09-30T13:15:59.882Z,5.85
2023-09-30T13:17:02.636Z,6.55
2023-09-30T13:18:06.883Z,13.15
2023-09-30T13:19:09.359Z,4.80
2023-09-30T13:20:12.921Z,8.55
2023-09-30T13:21:15.710Z,5.50
2023-09-30T13:22:19.431Z,7.30
2023-09-30T13:23:22.125Z,4.63
2023-09-30T13:24:24.922Z,11.45
2023-09-30T13:25:27.907Z,8.00
2023-09-30T13:26:31.543Z,6.88
2023-09-30T13:27:34.194Z,10.43
2023-09-30T13:28:36.663Z,6.38
2023-09-30T13:29:39.365Z,7.72
2023-09-30T13:30:42.025Z,6.70
2023-09-30T13:31:45.863Z,8.38
2023-09-30T13:32:48.197Z,6.82
2023-09-30T13:33:50.684Z,8.68
2023-09-30T13:34:53.704Z,7.97
2023-09-30T13:35:56.923Z,5.63
2023-09-30T13:36:59.463Z,6.55
2023-09-30T13:38:02.059Z,5.45
2023-09-30T13:39:06.692Z,5.40
2023-09-30T13:40:13.229Z,8.80
2023-09-30T13:41:17.144Z,4.95
2023-09-30T13:42:19.382Z,7.28
2023-09-30T13:43:21.935Z,5.25
2023-09-30T13:44:24.380Z,8.25
2023-09-30T13:45:26.904Z,6.80
2023-09-30T13:46:30.488Z,15.10
2023-09-30T13:47:32.964Z,8.32
2023-09-30T13:48:35.397Z,6.13
2023-09-30T13:49:37.738Z,9.82
2023-09-30T13:50:40.233Z,7.00
2023-09-30T13:51:42.980Z,4.97
2023-09-30T13:52:45.200Z,8.60
2023-09-30T13:53:47.754Z,9.73
2023-09-30T13:54:50.284Z,6.50
2023-09-30T13:55:53.390Z,3.67